createdAt,value
2018-06-03T13:08:17.704Z,27.60
2018-06-03T13:10:20.900Z,27.30
2018-06-03T13:12:24.766Z,27.20
2018-06-03T13:14:27.228Z,27.20
2018-06-03T13:16:29.705Z,27.00
2018-06-03T13:18:32.160Z,27.00
2018-06-03T13:20:34.712Z,27.00
2018-06-03T13:22:37.177Z,27.00
2018-06-03T13:24:39.616Z,27.30
2018-06-03T13:26:42.079Z,27.50
2018-06-03T13:28:44.508Z,27.50
2018-06-03T13:30:47.069Z,27.50
2018-06-03T13:32:49.535Z,27.50
2018-06-03T13:34:52.021Z,27.40
2018-06-03T13:36:54.467Z,27.50
2018-06-03T13:38:56.985Z,27.60
2018-06-03T13:40:59.440Z,27.60
2018-06-03T13:43:01.905Z,27.70
2018-06-03T13:45:06.280Z,27.90
2018-06-03T13:47:09.587Z,28.00
2018-06-03T13:49:12.092Z,28.00
2018-06-03T13:51:14.637Z,28.30
2018-06-03T13:53:17.200Z,28.50
2018-06-03T13:55:19.673Z,28.50
2018-06-03T13:57:22.140Z,28.50
2018-06-03T13:59:25.365Z,27.80
2018-06-03T14:01:27.818Z,27.80
2018-06-03T14:03:30.263Z,27.70
2018-06-03T14:05:32.742Z,27.80
2018-06-03T14:07:35.184Z,28.00
2018-06-03T14:09:38.466Z,28.10
2018-06-03T14:11:41.987Z,27.90
2018-06-03T14:13:45.212Z,27.90
2018-06-03T14:15:47.656Z,27.90
2018-06-03T14:17:50.108Z,28.10
2018-06-03T14:19:52.548Z,28.20
2018-06-03T14:21:56.524Z,28.40
2018-06-03T14:23:58.964Z,28.40
2018-06-03T14:26:01.417Z,28.50
2018-06-03T14:28:04.619Z,28.20
2018-06-03T14:30:07.112Z,28.20
2018-06-03T14:32:09.549Z,28.30
2018-06-03T14:34:11.983Z,28.60
2018-06-03T14:36:15.338Z,28.60
2018-06-03T14:38:17.820Z,28.60
2018-06-03T14:40:20.265Z,28.60
2018-06-03T14:42:22.751Z,28.50
2018-06-03T14:44:25.160Z,28.40
2018-06-03T14:46:29.128Z,28.50
2018-06-03T14:48:31.576Z,28.50
2018-06-03T14:50:34.068Z,28.40
2018-06-03T14:52:36.448Z,28.40
2018-06-03T14:54:38.903Z,28.30
2018-06-03T14:56:41.372Z,28.30
2018-06-03T14:58:43.778Z,28.20
2018-06-03T15:00:46.204Z,28.00
2018-06-03T15:02:50.193Z,27.30
2018-06-03T15:04:52.618Z,27.30
2018-06-03T15:06:55.076Z,26.90
2018-06-03T15:08:57.517Z,26.80
2018-06-03T15:11:00.729Z,26.80
2018-06-03T15:13:03.950Z,27.00
2018-06-03T15:15:06.386Z,27.00
2018-06-03T15:17:09.588Z,26.90
2018-06-03T15:19:12.068Z,26.90
2018-06-03T15:21:15.264Z,27.10
2018-06-03T15:23:17.708Z,27.00
2018-06-03T15:25:20.930Z,27.10
2018-06-03T15:27:23.428Z,27.10
2018-06-03T15:29:25.908Z,26.90
2018-06-03T15:31:28.497Z,26.70
2018-06-03T15:33:30.945Z,26.60
2018-06-03T15:35:33.448Z,26.60
2018-06-03T15:37:35.919Z,26.70
2018-06-03T15:39:38.353Z,26.90
2018-06-03T15:41:40.789Z,27.10
2018-06-03T15:43:44.768Z,27.00
2018-06-03T15:45:47.214Z,27.00
2018-06-03T15:47:49.698Z,26.70
2018-06-03T15:49:52.151Z,26.50
2018-06-03T15:51:54.943Z,26.70
2018-06-03T15:53:57.368Z,26.80
2018-06-03T15:56:00.703Z,27.00
2018-06-03T15:58:03.175Z,27.00
2018-06-03T16:00:05.635Z,26.90
2018-06-03T16:02:08.044Z,26.60
2018-06-03T16:04:10.704Z,26.70
2018-06-03T16:06:13.076Z,26.70
2018-06-03T16:08:15.523Z,26.80
2018-06-03T16:10:17.967Z,26.70
2018-06-03T16:12:21.198Z,26.60
2018-06-03T16:14:23.653Z,26.50
2018-06-03T16:16:26.087Z,26.50
2018-06-03T16:18:29.292Z,26.60
2018-06-03T16:20:31.739Z,26.60
2018-06-03T16:22:34.988Z,26.70
2018-06-03T16:24:37.444Z,26.70
2018-06-03T16:26:39.941Z,26.50
2018-06-03T16:28:42.408Z,26.50
2018-06-03T16:30:44.879Z,26.70
2018-06-03T16:32:47.284Z,26.40
2018-06-03T16:34:49.815Z,26.30
2018-06-03T16:36:52.288Z,26.20
2018-06-03T16:38:54.833Z,26.00
2018-06-03T16:40:57.268Z,26.10
2018-06-03T16:42:59.760Z,26.00
2018-06-03T16:45:02.180Z,26.00
2018-06-03T16:47:05.388Z,26.10
2018-06-03T16:49:07.900Z,26.10
2018-06-03T16:51:10.369Z,26.10
2018-06-03T16:53:12.831Z,26.10
2018-06-03T16:55:15.265Z,26.20
2018-06-03T16:57:18.466Z,26.20
2018-06-03T16:59:20.912Z,26.10
2018-06-03T17:01:24.779Z,26.10
2018-06-03T17:03:28.056Z,26.00
2018-06-03T17:05:30.508Z,25.90
2018-06-03T17:07:33.879Z,26.00
2018-06-03T17:09:37.092Z,25.80
2018-06-03T17:11:39.531Z,25.80
2018-06-03T17:13:42.752Z,25.80
2018-06-03T17:15:45.222Z,25.80
2018-06-03T17:17:47.689Z,25.90
2018-06-03T17:19:50.160Z,26.00
2018-06-03T17:21:52.603Z,26.00
2018-06-03T17:23:55.814Z,26.20
2018-06-03T17:25:58.266Z,26.20
2018-06-03T17:28:01.457Z,26.30
2018-06-03T17:30:04.077Z,26.30
2018-06-03T17:32:06.532Z,26.80
2018-06-03T17:34:09.004Z,28.20
2018-06-03T17:36:11.428Z,29.20
2018-06-03T17:38:17.403Z,31.50
2018-06-03T17:40:19.959Z,31.40
2018-06-03T17:42:23.236Z,32.80
2018-06-03T17:44:26.476Z,33.30
2018-06-03T17:46:28.932Z,33.30
2018-06-03T17:48:31.497Z,33.50
2018-06-03T17:50:34.156Z,34.00
2018-06-03T17:52:36.686Z,34.40
2018-06-03T17:54:39.942Z,35.30
2018-06-03T18:02:03.539Z,35.30
2018-06-03T18:09:32.859Z,34.60
2018-06-03T18:21:08.066Z,34.70
2018-06-03T18:25:05.590Z,35.40
2018-06-03T18:27:08.725Z,35.80
2018-06-03T18:29:11.882Z,35.10
2018-06-03T18:31:15.138Z,34.70
2018-06-03T18:33:18.282Z,34.20
2018-06-03T18:35:21.461Z,33.80
2018-06-03T18:37:24.633Z,33.60
2018-06-03T18:39:27.831Z,33.60
2018-06-03T18:41:30.993Z,33.70
2018-06-03T18:43:34.170Z,33.30
2018-06-03T18:45:37.320Z,31.80
2018-06-03T18:47:40.460Z,30.10
2018-06-03T18:49:43.619Z,28.70
2018-06-03T18:51:46.749Z,27.80
2018-06-03T18:53:49.913Z,27.10
2018-06-03T18:55:53.168Z,26.60
2018-06-03T18:57:56.300Z,26.20
2018-06-03T18:59:59.457Z,25.90
2018-06-03T19:02:03.478Z,25.70
2018-06-03T19:04:06.712Z,25.50
2018-06-03T19:06:09.988Z,25.20
2018-06-03T19:08:13.135Z,25.00
2018-06-03T19:10:16.514Z,24.80
2018-06-03T19:12:19.680Z,24.60
2018-06-03T19:14:22.852Z,24.40
2018-06-03T19:16:26.021Z,24.40
2018-06-03T19:18:29.220Z,24.30
2018-06-03T19:20:32.381Z,24.20
2018-06-03T19:22:35.667Z,24.20
2018-06-03T19:24:38.883Z,24.10
2018-06-03T19:26:42.055Z,24.00
2018-06-03T19:28:45.242Z,24.00
2018-06-03T19:30:48.449Z,23.80
2018-06-03T19:32:51.631Z,23.70
2018-06-03T19:34:54.998Z,23.60
2018-06-03T19:36:58.259Z,23.50
2018-06-03T19:39:02.516Z,23.40
2018-06-03T19:41:05.478Z,23.30
2018-06-03T19:43:08.599Z,23.30
2018-06-03T19:45:11.756Z,23.20
2018-06-03T19:47:14.985Z,23.10
2018-06-03T19:49:18.225Z,23.00
2018-06-03T19:51:21.564Z,22.90
2018-06-03T19:53:24.751Z,22.70
2018-06-03T19:55:27.936Z,22.50
2018-06-03T19:57:31.077Z,22.40
2018-06-03T19:59:34.283Z,22.30
2018-06-03T20:01:37.482Z,22.30
2018-06-03T20:03:41.709Z,22.20
2018-06-03T20:05:44.860Z,22.20
2018-06-03T20:07:48.007Z,22.10
2018-06-03T20:09:51.178Z,22.10
2018-06-03T20:13:57.332Z,22.00
2018-06-03T20:16:00.576Z,21.90
2018-06-03T20:18:03.837Z,21.90
2018-06-03T20:20:07.028Z,21.90
2018-06-03T20:22:10.289Z,21.80
2018-06-03T20:24:13.504Z,21.70
2018-06-03T20:26:16.669Z,21.60
2018-06-03T20:28:19.825Z,21.50
2018-06-03T20:30:23.034Z,21.50
2018-06-03T20:32:26.192Z,21.40
2018-06-03T20:34:29.389Z,21.40
2018-06-03T20:36:32.605Z,21.30
2018-06-03T20:38:35.816Z,21.30
2018-06-03T20:40:39.033Z,21.30
2018-06-03T20:42:42.330Z,21.30
2018-06-03T20:44:45.600Z,21.20
2018-06-03T20:46:48.731Z,21.20
2018-06-03T20:48:51.972Z,21.10
2018-06-03T20:50:55.256Z,21.00
2018-06-03T20:52:58.455Z,21.00
2018-06-03T20:55:01.633Z,20.90
2018-06-03T20:57:04.882Z,20.90
2018-06-03T20:59:08.072Z,20.80
2018-06-03T21:01:11.288Z,20.90
2018-06-03T21:03:14.460Z,20.80
2018-06-03T21:05:17.640Z,20.80
2018-06-03T21:07:20.866Z,20.80
2018-06-03T21:09:24.121Z,20.80
2018-06-03T21:11:27.329Z,20.80
2018-06-03T21:13:30.572Z,20.70
2018-06-03T21:15:33.771Z,20.70
2018-06-03T21:17:37.018Z,20.60
2018-06-03T21:19:40.264Z,20.60
2018-06-03T21:21:43.507Z,20.70
2018-06-03T21:23:46.712Z,20.70
2018-06-03T21:25:49.892Z,20.60
2018-06-03T21:27:53.076Z,20.60
2018-06-03T21:29:56.289Z,20.50
2018-06-03T21:31:59.467Z,20.50
2018-06-03T21:34:02.654Z,20.50
2018-06-03T21:36:06.127Z,20.40
2018-06-03T21:38:09.399Z,20.40
2018-06-03T21:40:12.756Z,20.30
2018-06-03T21:42:16.039Z,20.30
2018-06-03T21:44:19.296Z,20.30
2018-06-03T21:46:22.542Z,20.20
2018-06-03T21:48:25.757Z,20.20
2018-06-03T21:50:29.145Z,20.20
2018-06-03T21:52:32.348Z,20.10
2018-06-03T21:54:35.535Z,20.10
2018-06-03T21:56:38.930Z,20.10
2018-06-03T21:58:42.150Z,20.00
2018-06-03T22:00:45.441Z,19.90
2018-06-03T22:02:48.595Z,19.90
2018-06-03T22:04:51.794Z,19.90
2018-06-03T22:06:54.969Z,19.80
2018-06-03T22:08:58.217Z,19.80
2018-06-03T22:11:01.723Z,19.80
2018-06-03T22:13:05.449Z,19.80
2018-06-03T22:15:08.633Z,19.70
2018-06-03T22:17:11.831Z,19.70
2018-06-03T22:19:15.083Z,19.70
2018-06-03T22:21:18.303Z,19.60
2018-06-03T22:23:21.477Z,19.60
2018-06-03T22:25:24.703Z,19.60
2018-06-03T22:27:27.926Z,19.60
2018-06-03T22:29:31.068Z,19.50
2018-06-03T22:31:34.266Z,19.50
2018-06-03T22:33:37.428Z,19.50
2018-06-03T22:35:40.591Z,19.50
2018-06-03T22:37:43.863Z,19.40
2018-06-03T22:39:47.080Z,19.40
2018-06-03T22:41:50.477Z,19.40
2018-06-03T22:43:53.687Z,19.30
2018-06-03T22:45:56.848Z,19.30
2018-06-03T22:48:00.068Z,19.30
2018-06-03T22:50:03.359Z,19.20
2018-06-03T22:52:06.600Z,19.20
2018-06-03T22:54:09.804Z,19.20
2018-06-03T22:56:13.067Z,19.10
2018-06-03T22:58:16.304Z,19.10
2018-06-03T23:00:31.040Z,19.10
2018-06-03T23:02:34.204Z,19.00
2018-06-03T23:04:37.395Z,19.00
2018-06-03T23:06:40.608Z,19.00
2018-06-03T23:08:43.801Z,18.90
2018-06-03T23:10:46.964Z,18.90
2018-06-03T23:12:50.261Z,18.90
2018-06-03T23:14:53.428Z,18.80
2018-06-03T23:16:56.723Z,18.80
2018-06-03T23:18:59.873Z,18.80
2018-06-03T23:21:03.032Z,18.70
2018-06-03T23:23:06.217Z,18.70
2018-06-03T23:25:09.436Z,18.70
2018-06-03T23:27:12.611Z,18.70
2018-06-03T23:29:15.852Z,18.60
2018-06-03T23:31:19.027Z,18.60
2018-06-03T23:33:22.194Z,18.60
2018-06-03T23:35:25.484Z,18.60
2018-06-03T23:37:28.747Z,18.50
2018-06-03T23:39:31.940Z,18.50
2018-06-03T23:41:35.124Z,18.50
2018-06-03T23:43:38.311Z,18.50
2018-06-03T23:45:41.513Z,18.40
2018-06-03T23:47:45.666Z,18.40
2018-06-03T23:49:48.883Z,18.40
2018-06-03T23:51:52.113Z,18.40
2018-06-03T23:53:55.288Z,18.30
2018-06-03T23:55:58.488Z,18.30
2018-06-03T23:58:01.761Z,18.30
